Orbital elements of ONEWEB-0007
| Launched | 26 February 2019 |
| Flight ended | – |
| Launch site | Europe's Spaceport, Kourou, French Guiana |
| Owner | United Kingdom |
| NORAD ID | 44060 |
| Date fetched |
Epoch osculation |
Inc. [°] |
Ecc. | RA asc node [hr] |
Arg Peri. [°] |
Mean anom [°] |
Mean motion [rev/day] |
Abs. mag |
| Date fetched |
Epoch osculation |
Inc. [°] |
Ecc. | RA asc node [hr] |
Arg Peri. [°] |
Mean anom [°] |
Mean motion [rev/day] |
Abs. mag |
| 2026 May 05 17:57 | 2026 May 05 10:37:30 | 87.8961 | 0.00020 | 17.8496 | 90.1278 | 270.0081 | 13.15549 | – |
| 2026 May 04 17:57 | 2026 May 04 10:53:42 | 87.8962 | 0.00020 | 17.8628 | 90.0539 | 270.0081 | 13.15549 | – |
| 2026 May 03 17:57 | 2026 May 03 03:51:50 | 87.8960 | 0.00020 | 17.8800 | 90.3075 | 270.0081 | 13.15549 | – |
| 2026 May 02 17:57 | 2026 May 02 09:36:36 | 87.8960 | 0.00020 | 17.8901 | 90.6918 | 270.0081 | 13.15549 | – |
| 2026 May 01 17:56 | 2026 May 01 09:52:48 | 87.8958 | 0.00020 | 17.9033 | 91.2628 | 270.0081 | 13.15549 | – |
| 2026 Apr 30 17:56 | 2026 Apr 30 10:09:01 | 87.8957 | 0.00021 | 17.9164 | 91.1008 | 270.0081 | 13.15549 | – |
| 2026 Apr 29 17:57 | 2026 Apr 28 23:28:05 | 87.8953 | 0.00021 | 17.9357 | 91.6158 | 270.0081 | 13.15549 | – |
| 2026 Apr 28 17:56 | 2026 Apr 28 10:41:26 | 87.8952 | 0.00021 | 17.9428 | 91.6422 | 270.0081 | 13.15549 | – |
| 2026 Apr 27 17:58 | 2026 Apr 27 10:57:38 | 87.8950 | 0.00021 | 17.9559 | 92.0051 | 270.0081 | 13.15549 | – |
| 2026 Apr 26 17:58 | 2026 Apr 26 11:13:51 | 87.8949 | 0.00021 | 17.9691 | 92.0556 | 270.0081 | 13.15549 | – |
| 2026 Apr 25 17:58 | 2026 Apr 25 11:30:03 | 87.8950 | 0.00021 | 17.9823 | 92.1220 | 270.0081 | 13.15549 | – |
| 2026 Apr 24 17:59 | 2026 Apr 24 11:46:15 | 87.8946 | 0.00021 | 17.9954 | 93.7491 | 270.0081 | 13.15549 | – |
| 2026 Apr 23 17:57 | 2026 Apr 22 23:15:48 | 87.8949 | 0.00021 | 18.0157 | 93.2866 | 270.0081 | 13.15549 | – |
| 2026 Apr 22 17:57 | 2026 Apr 21 21:42:29 | 87.8947 | 0.00021 | 18.0299 | 93.3799 | 270.0081 | 13.15549 | – |
| 2026 Apr 21 17:57 | 2026 Apr 21 08:55:50 | 87.8945 | 0.00021 | 18.0370 | 93.3985 | 270.0081 | 13.15549 | – |
| 2026 Apr 20 17:57 | 2026 Apr 20 11:01:34 | 87.8942 | 0.00021 | 18.0492 | 93.6574 | 270.0081 | 13.15549 | – |
| 2026 Apr 19 17:58 | 2026 Apr 19 03:59:41 | 87.8940 | 0.00021 | 18.0664 | 93.8715 | 270.0081 | 13.15549 | – |
| 2026 Apr 18 17:56 | 2026 Apr 18 04:15:53 | 87.8939 | 0.00021 | 18.0796 | 94.2477 | 270.0081 | 13.15549 | – |
| 2026 Apr 16 17:57 | 2026 Apr 16 04:48:18 | 87.8935 | 0.00021 | 18.1059 | 94.9160 | 270.0081 | 13.15549 | – |
| 2026 Apr 14 17:57 | 2026 Apr 13 22:02:37 | 87.8935 | 0.00021 | 18.1363 | 95.6807 | 270.0081 | 13.15549 | – |
| 2026 Apr 13 17:57 | 2026 Apr 13 03:47:24 | 87.8935 | 0.00021 | 18.1465 | 95.7580 | 270.0081 | 13.15549 | – |
| 2026 Apr 12 17:57 | 2026 Apr 12 11:21:41 | 87.8935 | 0.00021 | 18.1556 | 95.8733 | 270.0081 | 13.15549 | – |
| 2026 Apr 11 17:57 | 2026 Apr 11 09:48:22 | 87.8936 | 0.00021 | 18.1698 | 96.1731 | 270.0081 | 13.15549 | – |
| 2026 Apr 10 17:58 | 2026 Apr 10 04:36:01 | 87.8933 | 0.00021 | 18.1860 | 96.4837 | 270.0081 | 13.15549 | – |
| 2026 Apr 09 18:01 | 2026 Apr 08 23:23:39 | 87.8930 | 0.00021 | 18.2023 | 97.1883 | 270.0081 | 13.15549 | – |
| 2026 Apr 08 17:57 | 2026 Apr 08 05:08:25 | 87.8927 | 0.00021 | 18.2124 | 97.7476 | 270.0081 | 13.15549 | – |